Time;durP1;ratioP1;P1;durP2;ratioP2;P2;SDS_P1;SDS_P2;PMS_P1;PMS_P2;Temp;Humidity;BMP_temperature;BMP_pressure;BME280_temperature;BME280_humidity;BME280_pressure;Samples;Min_cycle;Max_cycle;Signal;HPM_P1;HPM_P2
2022/06/18 00:00:46;;;;;;;;;;;24.30;99.90;;;;;;5109801;28;19907;-73
2022/06/18 00:03:12;;;;;;;;;;;24.30;99.90;;;;;;5111394;28;20003;-73
2022/06/18 00:05:39;;;;;;;;;;;24.40;99.90;;;;;;5108177;28;19904;-73
2022/06/18 00:08:15;;;;;;;;;;;24.30;99.90;;;;;;5112899;28;19914;-73
2022/06/18 00:10:42;;;;;;;;;;;24.30;99.90;;;;;;5117484;28;19953;-73
2022/06/18 00:15:58;;;;;;;;;;;24.30;99.90;;;;;;5112113;28;19990;-74
2022/06/18 00:18:49;;;;;;;;;;;24.20;99.90;;;;;;5113232;28;20468;-73
2022/06/18 00:21:17;;;;;;;;;;;24.20;99.90;;;;;;5113258;28;19935;-73
2022/06/18 00:23:43;;;;;;;;;;;24.20;99.90;;;;;;5116052;28;19923;-73
2022/06/18 00:26:09;;;;;;;;;;;24.30;99.90;;;;;;5118877;28;20293;-73
2022/06/18 00:28:35;;;;;;;;;;;24.20;99.90;;;;;;5109477;28;19911;-73
2022/06/18 00:31:01;;;;;;;;;;;24.10;99.90;;;;;;5117663;28;19904;-73
2022/06/18 00:33:27;;;;;;;;;;;24.10;99.90;;;;;;5115021;28;19924;-73
2022/06/18 00:35:57;;;;;;;;;;;24.10;99.90;;;;;;5115722;28;19915;-72
2022/06/18 00:38:23;;;;;;;;;;;24.00;99.90;;;;;;5117613;28;19963;-72
2022/06/18 00:40:49;;;;;;;;;;;24.00;99.90;;;;;;5116794;28;20377;-74
2022/06/18 00:43:20;;;;;;;;;;;24.00;99.90;;;;;;5118790;28;19912;-73
2022/06/18 00:45:47;;;;;;;;;;;24.00;99.90;;;;;;5120727;28;19904;-73
2022/06/18 00:48:13;;;;;;;;;;;23.90;99.90;;;;;;5119191;28;19907;-73
2022/06/18 00:50:49;;;;;;;;;;;23.80;99.90;;;;;;5119229;28;20441;-73
2022/06/18 00:53:18;;;;;;;;;;;23.80;99.90;;;;;;5115487;28;19907;-77
2022/06/18 00:55:48;;;;;;;;;;;23.80;99.90;;;;;;5112176;28;19914;-73
2022/06/18 00:58:16;;;;;;;;;;;23.70;99.90;;;;;;5112558;28;19980;-73
2022/06/18 01:00:43;;;;;;;;;;;23.60;99.90;;;;;;5114481;28;19958;-73
2022/06/18 01:03:27;;;;;;;;;;;23.40;99.90;;;;;;5113961;28;19995;-74
2022/06/18 01:05:54;;;;;;;;;;;23.40;99.90;;;;;;5113181;28;19912;-73
2022/06/18 01:08:21;;;;;;;;;;;23.30;99.90;;;;;;5118816;28;20009;-72
2022/06/18 01:10:48;;;;;;;;;;;23.30;99.90;;;;;;5112932;28;19907;-73
2022/06/18 01:13:17;;;;;;;;;;;23.30;99.90;;;;;;5118904;28;19908;-72
2022/06/18 01:15:43;;;;;;;;;;;23.40;99.90;;;;;;5119680;28;19908;-74
2022/06/18 01:18:09;;;;;;;;;;;23.40;99.90;;;;;;5125570;28;19908;-73
2022/06/18 01:20:46;;;;;;;;;;;23.30;99.90;;;;;;5125792;28;19912;-72
2022/06/18 01:23:19;;;;;;;;;;;23.30;99.90;;;;;;5126377;28;19910;-73
2022/06/18 01:25:47;;;;;;;;;;;23.20;99.90;;;;;;5118252;28;19943;-73
2022/06/18 01:28:16;;;;;;;;;;;23.20;99.90;;;;;;5114994;28;19972;-74
2022/06/18 01:30:43;;;;;;;;;;;23.30;99.90;;;;;;5104333;28;19911;-73
2022/06/18 01:33:10;;;;;;;;;;;23.30;99.90;;;;;;5108306;28;19914;-74
2022/06/18 01:35:38;;;;;;;;;;;23.40;99.90;;;;;;5100987;28;19930;-74
2022/06/18 01:38:04;;;;;;;;;;;23.40;99.90;;;;;;5110041;28;19908;-73
2022/06/18 01:40:44;;;;;;;;;;;23.40;99.90;;;;;;5106668;28;20243;-73
2022/06/18 01:43:11;;;;;;;;;;;23.40;99.90;;;;;;5106355;28;19915;-73
2022/06/18 01:45:37;;;;;;;;;;;23.40;99.90;;;;;;5109506;28;20296;-73
2022/06/18 01:48:09;;;;;;;;;;;23.40;99.90;;;;;;5110745;28;19986;-73
2022/06/18 01:50:34;;;;;;;;;;;23.40;99.90;;;;;;5106392;28;20365;-73
2022/06/18 01:53:21;;;;;;;;;;;23.40;99.90;;;;;;5114295;28;20024;-73
2022/06/18 01:55:50;;;;;;;;;;;23.40;99.90;;;;;;5107630;28;19914;-73
2022/06/18 01:58:19;;;;;;;;;;;23.40;99.90;;;;;;5107797;28;19908;-73
2022/06/18 02:00:48;;;;;;;;;;;23.40;99.90;;;;;;5110108;28;20041;-73
2022/06/18 02:03:14;;;;;;;;;;;23.40;99.90;;;;;;5111550;28;19907;-73
2022/06/18 02:05:39;;;;;;;;;;;23.30;99.90;;;;;;5110219;28;19903;-73
2022/06/18 02:08:07;;;;;;;;;;;23.30;99.90;;;;;;5107849;28;19923;-73
2022/06/18 02:10:37;;;;;;;;;;;23.20;99.90;;;;;;5103504;28;20378;-74
2022/06/18 02:13:04;;;;;;;;;;;23.10;99.90;;;;;;5108284;28;19910;-74
2022/06/18 02:15:32;;;;;;;;;;;23.10;99.90;;;;;;5111874;28;19915;-73
2022/06/18 02:18:01;;;;;;;;;;;23.10;99.90;;;;;;5109715;28;19961;-74
2022/06/18 02:20:29;;;;;;;;;;;23.10;99.90;;;;;;5107824;28;20020;-73
2022/06/18 02:22:55;;;;;;;;;;;23.20;99.90;;;;;;5097730;28;19983;-74
2022/06/18 02:25:23;;;;;;;;;;;23.30;99.90;;;;;;5110734;28;20300;-73
2022/06/18 02:27:50;;;;;;;;;;;23.20;99.90;;;;;;5105952;28;20016;-72
2022/06/18 02:30:19;;;;;;;;;;;23.20;99.90;;;;;;5108048;28;20002;-73
2022/06/18 02:33:00;;;;;;;;;;;23.30;99.90;;;;;;5110337;28;20301;-73
2022/06/18 02:35:26;;;;;;;;;;;23.20;99.90;;;;;;5108850;28;19915;-73
2022/06/18 02:37:54;;;;;;;;;;;23.20;99.90;;;;;;5105060;28;20365;-73
2022/06/18 02:40:24;;;;;;;;;;;23.10;99.90;;;;;;5107939;28;20316;-75
2022/06/18 02:42:52;;;;;;;;;;;23.00;99.90;;;;;;5109581;28;19907;-73
2022/06/18 02:45:18;;;;;;;;;;;23.00;99.90;;;;;;5107574;28;19908;-73
2022/06/18 02:47:45;;;;;;;;;;;23.00;99.90;;;;;;5108770;28;19939;-73
2022/06/18 02:50:12;;;;;;;;;;;23.00;99.90;;;;;;5107752;28;19907;-73
2022/06/18 02:52:40;;;;;;;;;;;23.10;99.90;;;;;;5111887;28;19904;-73
2022/06/18 02:55:19;;;;;;;;;;;23.10;99.90;;;;;;5108855;28;19907;-74
2022/06/18 02:57:46;;;;;;;;;;;23.30;99.90;;;;;;5109282;28;19911;-73
2022/06/18 03:00:13;;;;;;;;;;;23.30;99.90;;;;;;5107763;28;19912;-73
2022/06/18 03:02:39;;;;;;;;;;;23.30;99.90;;;;;;5108226;28;19937;-73
2022/06/18 03:05:04;;;;;;;;;;;23.30;99.90;;;;;;5111722;28;20345;-73
2022/06/18 03:07:30;;;;;;;;;;;23.40;99.90;;;;;;5109432;28;19904;-74
2022/06/18 03:12:40;;;;;;;;;;;23.30;99.90;;;;;;5105250;28;19915;-73
2022/06/18 03:15:05;;;;;;;;;;;23.40;99.90;;;;;;5103384;28;19908;-73
2022/06/18 03:17:31;;;;;;;;;;;23.40;99.90;;;;;;5106560;28;19912;-73
2022/06/18 03:19:59;;;;;;;;;;;23.40;99.90;;;;;;5110265;28;20261;-72
2022/06/18 03:22:25;;;;;;;;;;;23.40;99.90;;;;;;5107640;28;19908;-73
2022/06/18 03:24:50;;;;;;;;;;;23.40;99.90;;;;;;5108334;28;19930;-73
2022/06/18 03:27:17;;;;;;;;;;;23.50;99.90;;;;;;5107052;28;19903;-72
2022/06/18 03:29:43;;;;;;;;;;;23.50;99.90;;;;;;5096948;28;20290;-73
2022/06/18 03:32:09;;;;;;;;;;;23.40;99.90;;;;;;5111185;28;19999;-73
2022/06/18 03:34:35;;;;;;;;;;;23.50;99.90;;;;;;5107078;28;19959;-73
2022/06/18 03:37:01;;;;;;;;;;;23.50;99.90;;;;;;5110338;28;19903;-73
2022/06/18 03:39:26;;;;;;;;;;;23.40;99.90;;;;;;5107522;28;19944;-74
2022/06/18 03:41:52;;;;;;;;;;;23.50;99.90;;;;;;5101642;28;19916;-73
2022/06/18 03:44:18;;;;;;;;;;;23.50;99.90;;;;;;5102872;28;19998;-73
2022/06/18 03:46:44;;;;;;;;;;;23.50;99.90;;;;;;5107984;28;19914;-73
2022/06/18 03:49:14;;;;;;;;;;;23.50;99.90;;;;;;5108266;28;19915;-73
2022/06/18 03:51:40;;;;;;;;;;;23.50;99.90;;;;;;5106680;28;19908;-73
2022/06/18 03:54:05;;;;;;;;;;;23.50;99.90;;;;;;5109219;28;19953;-72
2022/06/18 03:56:32;;;;;;;;;;;23.50;99.90;;;;;;5105893;28;20514;-73
2022/06/18 03:58:58;;;;;;;;;;;23.60;99.90;;;;;;5105713;28;19907;-74
2022/06/18 04:01:25;;;;;;;;;;;23.60;99.90;;;;;;5106762;28;20120;-74
2022/06/18 04:03:51;;;;;;;;;;;23.60;99.90;;;;;;5111116;28;19907;-72
2022/06/18 04:06:17;;;;;;;;;;;23.60;99.90;;;;;;5109470;28;19910;-72
2022/06/18 04:08:43;;;;;;;;;;;23.70;99.90;;;;;;5103196;28;19931;-73
2022/06/18 04:11:09;;;;;;;;;;;23.70;99.90;;;;;;5104158;28;19921;-72
2022/06/18 04:13:35;;;;;;;;;;;23.70;99.90;;;;;;5110502;28;19919;-74
2022/06/18 04:16:00;;;;;;;;;;;23.80;99.90;;;;;;5111045;28;19904;-73
2022/06/18 04:18:26;;;;;;;;;;;23.80;99.90;;;;;;5107173;28;20015;-73
2022/06/18 04:20:53;;;;;;;;;;;23.80;99.90;;;;;;5106398;28;20002;-72
2022/06/18 04:23:18;;;;;;;;;;;23.80;99.90;;;;;;5110867;28;19904;-73
2022/06/18 04:25:44;;;;;;;;;;;23.80;99.90;;;;;;5107215;28;19908;-73
2022/06/18 04:28:14;;;;;;;;;;;23.80;99.90;;;;;;5105333;28;20380;-73
2022/06/18 04:30:40;;;;;;;;;;;23.80;99.90;;;;;;5103886;28;19908;-72
2022/06/18 04:33:06;;;;;;;;;;;23.90;99.90;;;;;;5110534;28;19911;-73
2022/06/18 04:35:31;;;;;;;;;;;23.90;99.90;;;;;;5108450;28;19911;-73
2022/06/18 04:37:57;;;;;;;;;;;23.90;99.90;;;;;;5105173;28;20016;-73
2022/06/18 04:40:28;;;;;;;;;;;23.80;99.90;;;;;;5106898;28;19912;-73
2022/06/18 04:42:54;;;;;;;;;;;23.90;99.90;;;;;;5105602;28;20452;-72
2022/06/18 04:45:19;;;;;;;;;;;24.00;99.90;;;;;;5107688;28;19987;-73
2022/06/18 04:47:45;;;;;;;;;;;24.00;99.90;;;;;;5108175;28;19911;-73
2022/06/18 04:50:15;;;;;;;;;;;24.10;99.90;;;;;;5106377;28;19908;-75
2022/06/18 04:52:41;;;;;;;;;;;24.10;99.90;;;;;;5107548;28;19908;-74
2022/06/18 04:55:07;;;;;;;;;;;24.10;99.90;;;;;;5109525;28;19931;-75
2022/06/18 04:57:33;;;;;;;;;;;24.20;99.90;;;;;;5109045;28;19964;-74
2022/06/18 04:59:58;;;;;;;;;;;24.30;99.90;;;;;;5104197;28;19916;-72
2022/06/18 05:02:26;;;;;;;;;;;24.30;99.90;;;;;;5103092;28;19915;-73
2022/06/18 05:04:53;;;;;;;;;;;24.20;99.90;;;;;;5108751;28;19956;-73
2022/06/18 05:07:19;;;;;;;;;;;24.30;99.90;;;;;;5113595;28;20335;-73
2022/06/18 05:09:44;;;;;;;;;;;24.30;99.90;;;;;;5120737;28;19919;-73
2022/06/18 05:12:12;;;;;;;;;;;24.30;99.90;;;;;;5117441;28;19990;-73
2022/06/18 05:14:38;;;;;;;;;;;24.40;99.90;;;;;;5117337;28;19908;-74
2022/06/18 05:17:05;;;;;;;;;;;24.50;99.90;;;;;;5111932;28;19911;-74
2022/06/18 05:19:32;;;;;;;;;;;24.50;99.90;;;;;;5115203;28;19907;-73
2022/06/18 05:21:57;;;;;;;;;;;24.60;99.90;;;;;;5110138;28;20337;-73
2022/06/18 05:24:23;;;;;;;;;;;24.50;99.90;;;;;;5113859;28;20006;-73
2022/06/18 05:26:50;;;;;;;;;;;24.50;99.90;;;;;;5109798;28;19911;-73
2022/06/18 05:29:17;;;;;;;;;;;24.50;99.90;;;;;;5108875;28;19918;-74
2022/06/18 05:31:43;;;;;;;;;;;24.50;99.90;;;;;;5111852;28;20002;-71
2022/06/18 05:34:09;;;;;;;;;;;24.60;99.90;;;;;;5111128;28;19920;-73
2022/06/18 05:36:35;;;;;;;;;;;24.60;99.90;;;;;;5111982;28;19907;-76
2022/06/18 05:39:01;;;;;;;;;;;24.80;99.90;;;;;;5103722;28;20036;-76
2022/06/18 05:41:27;;;;;;;;;;;25.00;99.90;;;;;;5091618;28;20276;-72
2022/06/18 05:43:53;;;;;;;;;;;25.00;99.90;;;;;;5113473;28;19911;-73
2022/06/18 05:46:18;;;;;;;;;;;25.00;99.90;;;;;;5113429;28;20606;-71
2022/06/18 05:48:44;;;;;;;;;;;25.20;99.90;;;;;;5108365;28;20281;-72
2022/06/18 05:51:09;;;;;;;;;;;25.20;99.90;;;;;;5104426;28;19907;-72
2022/06/18 05:53:35;;;;;;;;;;;25.20;99.90;;;;;;5112593;28;19903;-72
2022/06/18 05:56:01;;;;;;;;;;;25.30;99.90;;;;;;5113155;28;19994;-73
2022/06/18 05:58:27;;;;;;;;;;;25.30;99.90;;;;;;5107899;28;20541;-71
2022/06/18 06:00:52;;;;;;;;;;;25.30;99.90;;;;;;5113115;28;20101;-71
2022/06/18 06:03:18;;;;;;;;;;;25.20;99.90;;;;;;5113117;28;20281;-70
2022/06/18 06:05:44;;;;;;;;;;;25.30;99.90;;;;;;5113060;27;20376;-72
2022/06/18 06:08:11;;;;;;;;;;;25.30;99.90;;;;;;5110129;28;19915;-72
2022/06/18 06:13:22;;;;;;;;;;;25.40;99.90;;;;;;5111599;28;19918;-73
2022/06/18 06:15:48;;;;;;;;;;;25.50;99.90;;;;;;5108641;28;19907;-73
2022/06/18 06:18:15;;;;;;;;;;;25.60;99.90;;;;;;5108060;28;20048;-69
2022/06/18 06:20:42;;;;;;;;;;;25.60;99.90;;;;;;5111064;28;20002;-71
2022/06/18 06:23:08;;;;;;;;;;;25.60;99.90;;;;;;5111863;28;19931;-69
2022/06/18 06:25:34;;;;;;;;;;;25.70;99.90;;;;;;5114167;28;20276;-70
2022/06/18 06:28:00;;;;;;;;;;;25.90;99.90;;;;;;5106744;28;19914;-70
2022/06/18 06:30:26;;;;;;;;;;;25.90;99.90;;;;;;5106167;28;19935;-70
2022/06/18 06:32:53;;;;;;;;;;;26.00;99.90;;;;;;5106732;28;19918;-69
2022/06/18 06:35:18;;;;;;;;;;;26.20;99.90;;;;;;5109209;28;20282;-70
2022/06/18 06:37:44;;;;;;;;;;;26.00;99.90;;;;;;5108322;28;19950;-70
2022/06/18 06:40:10;;;;;;;;;;;25.90;99.90;;;;;;5105397;28;19912;-72
2022/06/18 06:42:43;;;;;;;;;;;25.90;99.90;;;;;;5113978;28;19919;-70
2022/06/18 06:45:13;;;;;;;;;;;25.90;99.90;;;;;;5117496;28;19914;-71
2022/06/18 06:47:38;;;;;;;;;;;26.00;99.90;;;;;;5109387;28;19919;-70
2022/06/18 06:50:04;;;;;;;;;;;26.10;99.90;;;;;;5117575;28;19904;-69
2022/06/18 06:52:29;;;;;;;;;;;26.20;99.90;;;;;;5116797;27;19908;-70
2022/06/18 06:57:21;;;;;;;;;;;26.30;99.90;;;;;;5105634;28;20401;-69
2022/06/18 06:57:42;;;;;;;;;;;26.30;99.90;;;;;;5107005;28;20294;-70
2022/06/18 07:00:08;;;;;;;;;;;26.40;99.90;;;;;;5110591;28;19907;-70
2022/06/18 07:02:34;;;;;;;;;;;26.50;99.90;;;;;;5108866;28;19903;-69
2022/06/18 07:05:02;;;;;;;;;;;26.60;99.90;;;;;;5111347;28;19935;-70
2022/06/18 07:07:30;;;;;;;;;;;26.60;99.90;;;;;;5106701;27;19963;-69
2022/06/18 07:09:55;;;;;;;;;;;26.60;99.90;;;;;;5107686;28;19950;-70
2022/06/18 07:12:21;;;;;;;;;;;26.30;99.90;;;;;;5106220;28;20462;-70
2022/06/18 07:14:46;;;;;;;;;;;26.20;99.90;;;;;;5106872;28;19943;-69
2022/06/18 07:17:16;;;;;;;;;;;26.30;99.90;;;;;;5111629;28;20289;-70
2022/06/18 07:19:42;;;;;;;;;;;26.30;99.90;;;;;;5110617;28;19914;-70
2022/06/18 07:22:08;;;;;;;;;;;26.30;99.90;;;;;;5109315;28;19994;-69
2022/06/18 07:24:34;;;;;;;;;;;26.30;99.90;;;;;;5108549;28;19960;-68
2022/06/18 07:26:59;;;;;;;;;;;26.30;99.90;;;;;;5110392;28;20320;-69
2022/06/18 07:29:25;;;;;;;;;;;26.30;99.90;;;;;;5106494;28;19926;-68
2022/06/18 07:31:51;;;;;;;;;;;26.50;99.90;;;;;;5110819;28;20353;-70
2022/06/18 07:34:16;;;;;;;;;;;26.40;99.90;;;;;;5109186;28;19911;-71
2022/06/18 07:36:42;;;;;;;;;;;26.40;99.90;;;;;;5111345;28;19907;-70
2022/06/18 07:39:07;;;;;;;;;;;26.40;99.90;;;;;;5111916;28;20354;-69
2022/06/18 07:41:35;;;;;;;;;;;26.60;99.90;;;;;;5111363;28;19908;-66
2022/06/18 07:44:02;;;;;;;;;;;26.70;99.90;;;;;;5105454;28;19954;-70
2022/06/18 07:46:31;;;;;;;;;;;26.90;99.90;;;;;;5097237;28;20007;-69
2022/06/18 07:48:57;;;;;;;;;;;26.90;99.90;;;;;;5098044;28;19908;-71
2022/06/18 07:51:23;;;;;;;;;;;27.00;99.90;;;;;;5109334;28;19990;-69
2022/06/18 07:53:49;;;;;;;;;;;27.00;99.90;;;;;;5107960;28;19912;-69
2022/06/18 07:56:15;;;;;;;;;;;27.20;99.90;;;;;;5108789;28;19960;-69
2022/06/18 07:58:41;;;;;;;;;;;27.20;99.90;;;;;;5108387;28;20281;-68
2022/06/18 08:01:07;;;;;;;;;;;27.20;99.90;;;;;;5109594;28;19947;-69
2022/06/18 08:03:33;;;;;;;;;;;27.20;99.90;;;;;;5111261;28;19926;-69
2022/06/18 08:05:58;;;;;;;;;;;27.10;99.90;;;;;;5109878;28;20002;-67
2022/06/18 08:08:25;;;;;;;;;;;26.90;99.90;;;;;;5111112;28;20104;-70
2022/06/18 08:10:51;;;;;;;;;;;27.00;99.90;;;;;;5108908;28;19972;-69
2022/06/18 08:13:17;;;;;;;;;;;26.80;99.90;;;;;;5110973;28;19904;-70
2022/06/18 08:15:42;;;;;;;;;;;26.60;99.90;;;;;;5108295;28;19914;-68
2022/06/18 08:18:08;;;;;;;;;;;26.40;99.90;;;;;;5109550;28;20277;-69
2022/06/18 08:20:34;;;;;;;;;;;26.30;99.90;;;;;;5110779;28;19953;-69
2022/06/18 08:23:01;;;;;;;;;;;26.20;99.90;;;;;;5107878;28;19914;-70
2022/06/18 08:25:28;;;;;;;;;;;26.00;99.90;;;;;;5109553;28;19914;-69
2022/06/18 08:27:55;;;;;;;;;;;26.10;99.90;;;;;;5106796;28;19908;-70
2022/06/18 08:30:21;;;;;;;;;;;25.90;99.90;;;;;;5106242;28;20297;-68
2022/06/18 08:32:46;;;;;;;;;;;25.90;99.90;;;;;;5110824;28;19948;-69
2022/06/18 08:35:12;;;;;;;;;;;26.00;99.90;;;;;;5108498;28;19912;-68
2022/06/18 08:37:38;;;;;;;;;;;26.10;99.90;;;;;;5109631;28;19911;-69
2022/06/18 08:40:34;;;;;;;;;;;26.10;99.90;;;;;;5111602;28;19908;-69
2022/06/18 08:42:58;;;;;;;;;;;26.10;99.90;;;;;;5109082;28;19928;-69
2022/06/18 08:45:34;;;;;;;;;;;26.10;99.90;;;;;;5112541;28;19916;-69
2022/06/18 08:48:03;;;;;;;;;;;26.10;99.90;;;;;;5110322;28;19911;-70
2022/06/18 08:50:49;;;;;;;;;;;26.20;99.90;;;;;;5115518;28;19912;-70
2022/06/18 08:53:14;;;;;;;;;;;26.10;99.90;;;;;;5115183;28;19910;-69
2022/06/18 08:55:57;;;;;;;;;;;26.30;99.90;;;;;;5113423;28;19971;-68
2022/06/18 08:58:46;;;;;;;;;;;26.40;99.90;;;;;;5108318;28;19996;-70
2022/06/18 09:01:14;;;;;;;;;;;26.40;99.90;;;;;;5103743;28;19934;-70
2022/06/18 09:04:00;;;;;;;;;;;26.50;99.90;;;;;;5112361;28;19915;-69
2022/06/18 09:06:34;;;;;;;;;;;26.50;99.90;;;;;;5113939;28;19907;-69
2022/06/18 09:09:06;;;;;;;;;;;26.50;99.90;;;;;;5105795;28;19922;-69
2022/06/18 09:11:37;;;;;;;;;;;26.50;99.90;;;;;;5110345;28;19908;-69
2022/06/18 09:14:06;;;;;;;;;;;26.60;99.90;;;;;;5104906;28;19915;-68
2022/06/18 09:16:38;;;;;;;;;;;26.80;99.90;;;;;;5115744;28;20056;-69
2022/06/18 09:19:06;;;;;;;;;;;26.90;99.90;;;;;;5105556;28;19912;-69
2022/06/18 09:21:51;;;;;;;;;;;27.00;99.90;;;;;;5108480;28;19916;-69
2022/06/18 09:24:19;;;;;;;;;;;27.00;99.90;;;;;;5113754;28;20326;-70
2022/06/18 09:26:47;;;;;;;;;;;27.00;99.90;;;;;;5107112;28;19919;-71
2022/06/18 09:29:18;;;;;;;;;;;26.90;99.90;;;;;;5112131;28;20420;-71
2022/06/18 09:31:55;;;;;;;;;;;27.00;99.90;;;;;;5108588;28;19947;-68
2022/06/18 09:34:23;;;;;;;;;;;27.10;99.90;;;;;;5111367;28;20003;-69
2022/06/18 09:36:52;;;;;;;;;;;27.20;99.90;;;;;;5112537;28;19907;-71
2022/06/18 09:39:20;;;;;;;;;;;27.30;99.90;;;;;;5110795;28;20446;-71
2022/06/18 09:41:46;;;;;;;;;;;27.10;99.90;;;;;;5112330;28;20345;-70
2022/06/18 09:44:32;;;;;;;;;;;26.80;99.90;;;;;;5098971;28;19925;-71
2022/06/18 09:47:00;;;;;;;;;;;26.80;99.90;;;;;;5109164;28;19915;-70
2022/06/18 09:49:27;;;;;;;;;;;26.80;99.90;;;;;;5112398;28;19904;-69
2022/06/18 09:51:59;;;;;;;;;;;26.80;99.90;;;;;;5111527;28;19908;-69
2022/06/18 09:54:28;;;;;;;;;;;26.80;99.90;;;;;;5113602;28;19908;-69
2022/06/18 09:56:56;;;;;;;;;;;26.90;99.90;;;;;;5113474;27;19904;-69
2022/06/18 09:59:25;;;;;;;;;;;26.80;99.90;;;;;;5092750;28;20346;-70
2022/06/18 10:01:53;;;;;;;;;;;27.00;99.90;;;;;;5113070;28;19908;-70
2022/06/18 10:07:12;;;;;;;;;;;27.10;99.90;;;;;;5102725;28;20152;-69
2022/06/18 10:09:44;;;;;;;;;;;26.90;99.90;;;;;;5111753;28;19987;-71
2022/06/18 10:12:21;;;;;;;;;;;27.00;99.90;;;;;;5113304;28;19908;-69
2022/06/18 10:14:52;;;;;;;;;;;27.00;99.90;;;;;;5109907;28;19908;-70
2022/06/18 10:17:38;;;;;;;;;;;27.00;99.90;;;;;;5111532;28;19907;-69
2022/06/18 10:20:08;;;;;;;;;;;26.80;99.90;;;;;;5111698;28;20411;-69
2022/06/18 10:22:34;;;;;;;;;;;26.80;99.90;;;;;;5109372;28;20284;-67
2022/06/18 10:24:59;;;;;;;;;;;26.80;99.90;;;;;;5104915;28;19908;-68
2022/06/18 10:27:43;;;;;;;;;;;26.80;99.90;;;;;;5111755;28;20002;-70
2022/06/18 10:30:18;;;;;;;;;;;26.70;99.90;;;;;;5109981;28;19999;-70
2022/06/18 10:33:02;;;;;;;;;;;26.70;99.90;;;;;;5111110;28;19911;-69
2022/06/18 10:35:38;;;;;;;;;;;26.90;99.90;;;;;;5111471;28;20373;-70
2022/06/18 10:38:15;;;;;;;;;;;27.00;99.90;;;;;;5109349;28;19903;-69
2022/06/18 10:41:16;;;;;;;;;;;26.90;99.90;;;;;;5110728;28;19956;-70
2022/06/18 10:43:42;;;;;;;;;;;26.90;99.90;;;;;;5066595;28;19916;-70
2022/06/18 10:46:10;;;;;;;;;;;27.10;99.90;;;;;;5101868;28;20380;-70
2022/06/18 10:48:36;;;;;;;;;;;27.30;99.90;;;;;;5104250;28;19908;-70
2022/06/18 10:51:02;;;;;;;;;;;27.50;99.90;;;;;;5106995;28;19929;-70
2022/06/18 10:53:29;;;;;;;;;;;27.60;99.90;;;;;;5104344;27;19908;-70
2022/06/18 10:56:01;;;;;;;;;;;27.70;99.90;;;;;;5108492;28;19912;-70
2022/06/18 10:58:27;;;;;;;;;;;27.80;99.90;;;;;;5110735;28;19979;-69
2022/06/18 11:01:04;;;;;;;;;;;27.90;99.90;;;;;;5113357;28;19914;-71
2022/06/18 11:03:31;;;;;;;;;;;27.90;99.90;;;;;;5098003;28;19998;-69
2022/06/18 11:05:57;;;;;;;;;;;27.70;99.90;;;;;;5093525;28;19937;-68
2022/06/18 11:08:23;;;;;;;;;;;27.60;99.90;;;;;;5095707;28;19911;-69
2022/06/18 11:10:54;;;;;;;;;;;27.60;99.90;;;;;;5106137;28;19914;-69
2022/06/18 11:13:22;;;;;;;;;;;27.40;99.90;;;;;;5110855;28;20007;-71
2022/06/18 11:15:48;;;;;;;;;;;27.40;99.90;;;;;;5111863;28;19907;-68
2022/06/18 11:18:18;;;;;;;;;;;27.40;99.90;;;;;;5110525;28;20423;-69
2022/06/18 11:21:04;;;;;;;;;;;27.60;99.90;;;;;;5101767;28;20373;-70
2022/06/18 11:23:31;;;;;;;;;;;27.60;99.90;;;;;;5107893;28;20323;-71
2022/06/18 11:25:57;;;;;;;;;;;27.80;99.90;;;;;;5109090;28;19915;-70
2022/06/18 11:28:23;;;;;;;;;;;27.70;99.90;;;;;;5107439;28;19911;-69
2022/06/18 11:30:50;;;;;;;;;;;27.70;99.90;;;;;;5109874;28;19950;-69
2022/06/18 11:33:33;;;;;;;;;;;27.80;99.90;;;;;;5105033;28;19911;-69
2022/06/18 11:36:06;;;;;;;;;;;27.80;99.90;;;;;;5105244;28;19987;-70
2022/06/18 11:38:32;;;;;;;;;;;27.80;99.90;;;;;;5100441;28;20285;-67
2022/06/18 11:41:00;;;;;;;;;;;27.70;99.90;;;;;;5087209;28;20401;-70
2022/06/18 11:43:39;;;;;;;;;;;27.60;99.90;;;;;;5091217;27;19954;-72
2022/06/18 11:46:07;;;;;;;;;;;27.60;99.90;;;;;;5107791;28;19907;-69
2022/06/18 11:48:45;;;;;;;;;;;27.70;99.90;;;;;;5113153;28;19954;-72
2022/06/18 11:51:29;;;;;;;;;;;27.90;99.90;;;;;;5111965;28;19947;-71
2022/06/18 11:54:07;;;;;;;;;;;28.00;99.90;;;;;;5108115;28;19961;-71
2022/06/18 11:56:41;;;;;;;;;;;28.20;99.90;;;;;;5105709;28;19904;-71
2022/06/18 11:59:15;;;;;;;;;;;28.30;99.90;;;;;;5110780;28;19950;-71
2022/06/18 12:01:50;;;;;;;;;;;28.30;99.90;;;;;;5113247;28;19938;-72
2022/06/18 12:04:45;;;;;;;;;;;28.40;99.90;;;;;;5112387;28;19949;-73
2022/06/18 12:07:10;;;;;;;;;;;28.50;99.90;;;;;;5106116;28;19904;-74
2022/06/18 12:09:36;;;;;;;;;;;28.70;99.90;;;;;;5120225;28;20388;-70
2022/06/18 12:12:02;;;;;;;;;;;28.80;99.90;;;;;;5113566;28;19910;-73
2022/06/18 12:14:34;;;;;;;;;;;28.50;99.90;;;;;;5115279;28;19908;-72
2022/06/18 12:16:59;;;;;;;;;;;28.30;99.90;;;;;;5114616;28;19907;-70
2022/06/18 12:19:29;;;;;;;;;;;28.30;99.90;;;;;;5117928;28;19953;-71
2022/06/18 12:21:55;;;;;;;;;;;28.40;99.90;;;;;;5115876;28;20075;-72
2022/06/18 12:24:37;;;;;;;;;;;28.50;99.90;;;;;;5106654;28;19939;-72
2022/06/18 12:27:03;;;;;;;;;;;28.70;99.90;;;;;;5114242;28;20041;-74
2022/06/18 12:29:28;;;;;;;;;;;29.00;99.90;;;;;;5115833;28;19949;-74
2022/06/18 12:31:54;;;;;;;;;;;29.10;99.90;;;;;;5109116;28;20380;-72
2022/06/18 12:34:35;;;;;;;;;;;29.30;99.90;;;;;;5107401;28;19912;-72
2022/06/18 12:37:21;;;;;;;;;;;29.20;99.90;;;;;;5112679;28;20416;-72
2022/06/18 12:39:59;;;;;;;;;;;29.10;99.90;;;;;;5112305;28;19911;-72
2022/06/18 12:42:24;;;;;;;;;;;28.90;99.90;;;;;;5113009;28;19904;-73
2022/06/18 12:44:52;;;;;;;;;;;28.90;99.90;;;;;;5106952;27;19907;-73
2022/06/18 12:47:24;;;;;;;;;;;28.90;99.90;;;;;;5116984;27;19925;-71
2022/06/18 12:50:02;;;;;;;;;;;28.90;99.90;;;;;;5116087;27;19915;-72
2022/06/18 12:52:27;;;;;;;;;;;28.90;99.90;;;;;;5115231;27;19915;-72
2022/06/18 12:55:05;;;;;;;;;;;28.80;99.90;;;;;;5123074;27;19904;-73
2022/06/18 12:57:52;;;;;;;;;;;29.00;99.90;;;;;;5117533;27;20281;-73
2022/06/18 13:00:38;;;;;;;;;;;29.00;99.90;;;;;;5119924;27;19923;-71
2022/06/18 13:03:04;;;;;;;;;;;29.00;99.90;;;;;;5111742;27;19907;-71
2022/06/18 13:05:46;;;;;;;;;;;29.10;99.90;;;;;;5129523;27;19915;-74
2022/06/18 13:08:15;;;;;;;;;;;29.30;99.90;;;;;;5127831;27;19990;-73
2022/06/18 13:11:00;;;;;;;;;;;29.30;99.90;;;;;;5126697;27;19903;-74
2022/06/18 13:13:45;;;;;;;;;;;29.10;99.90;;;;;;5117272;27;19911;-73
2022/06/18 13:16:17;;;;;;;;;;;28.90;99.90;;;;;;5124194;27;19911;-73
2022/06/18 13:18:48;;;;;;;;;;;29.00;99.90;;;;;;5126941;27;19988;-73
2022/06/18 13:21:14;;;;;;;;;;;28.90;99.90;;;;;;5123956;27;19914;-72
2022/06/18 13:29:35;;;;;;;;;;;28.80;99.90;;;;;;5119181;27;20437;-72
2022/06/18 13:32:11;;;;;;;;;;;28.80;99.90;;;;;;5123927;27;19950;-71
2022/06/18 13:34:52;;;;;;;;;;;28.80;99.90;;;;;;5114761;27;19918;-71
2022/06/18 13:37:20;;;;;;;;;;;28.90;99.90;;;;;;5114032;27;19961;-71
2022/06/18 13:39:46;;;;;;;;;;;29.00;99.90;;;;;;5096520;27;19915;-73
2022/06/18 13:42:31;;;;;;;;;;;29.00;99.90;;;;;;5104537;27;20387;-72
2022/06/18 13:45:16;;;;;;;;;;;29.10;99.90;;;;;;5115741;27;19908;-73
2022/06/18 13:47:48;;;;;;;;;;;29.10;99.90;;;;;;5123598;27;19911;-72
2022/06/18 13:50:20;;;;;;;;;;;29.10;99.90;;;;;;5117694;27;19915;-72
2022/06/18 13:52:46;;;;;;;;;;;28.80;99.90;;;;;;5109904;27;19918;-71
2022/06/18 13:55:13;;;;;;;;;;;29.00;99.90;;;;;;5107405;28;20373;-71
2022/06/18 13:57:41;;;;;;;;;;;29.00;99.90;;;;;;5105750;27;19915;-70
2022/06/18 14:00:11;;;;;;;;;;;29.00;99.90;;;;;;5113855;28;20282;-71
2022/06/18 14:02:39;;;;;;;;;;;28.90;99.90;;;;;;5108771;28;20388;-69
2022/06/18 14:05:10;;;;;;;;;;;29.00;99.90;;;;;;5108719;28;19907;-70
2022/06/18 14:07:41;;;;;;;;;;;28.90;99.90;;;;;;5110303;28;19907;-70
2022/06/18 14:10:11;;;;;;;;;;;28.70;99.90;;;;;;5104942;28;20332;-73
2022/06/18 14:12:39;;;;;;;;;;;28.60;99.90;;;;;;5109124;28;20336;-70
2022/06/18 14:15:23;;;;;;;;;;;28.40;99.90;;;;;;5111128;27;20399;-70
2022/06/18 14:17:50;;;;;;;;;;;28.40;99.90;;;;;;5107306;28;20324;-71
2022/06/18 14:20:19;;;;;;;;;;;28.40;99.90;;;;;;5096451;28;19915;-70
2022/06/18 14:22:55;;;;;;;;;;;28.30;99.90;;;;;;5106717;28;19908;-70
2022/06/18 14:25:21;;;;;;;;;;;28.50;99.90;;;;;;5111397;28;19912;-69
2022/06/18 14:27:47;;;;;;;;;;;28.40;99.90;;;;;;5113543;28;19911;-70
2022/06/18 14:30:20;;;;;;;;;;;28.60;99.90;;;;;;5112138;28;19907;-70
2022/06/18 14:32:53;;;;;;;;;;;28.80;99.90;;;;;;5112206;27;19907;-67
2022/06/18 14:35:19;;;;;;;;;;;28.80;99.90;;;;;;5110540;28;19962;-69
2022/06/18 14:37:46;;;;;;;;;;;28.90;99.90;;;;;;5109627;28;20552;-69
2022/06/18 14:40:15;;;;;;;;;;;28.90;99.90;;;;;;5108083;28;19912;-69
2022/06/18 14:42:50;;;;;;;;;;;29.00;99.90;;;;;;5112615;28;19951;-69
2022/06/18 14:45:21;;;;;;;;;;;29.20;99.90;;;;;;5111498;28;20270;-68